sensor_id;sensor_type;location;lat;lon;timestamp;temperature;humidity
30399;DHT22;17195;50.838;7.214;2023-04-03T00:00:56;4.00;99.90
30399;DHT22;17195;50.838;7.214;2023-04-03T00:03:22;4.00;99.90
30399;DHT22;17195;50.838;7.214;2023-04-03T00:05:47;4.10;99.90
30399;DHT22;17195;50.838;7.214;2023-04-03T00:08:13;4.00;99.90
30399;DHT22;17195;50.838;7.214;2023-04-03T00:10:39;4.00;99.90
30399;DHT22;17195;50.838;7.214;2023-04-03T00:13:05;4.00;99.90
30399;DHT22;17195;50.838;7.214;2023-04-03T00:15:31;4.00;99.90
30399;DHT22;17195;50.838;7.214;2023-04-03T00:17:57;4.00;99.90
30399;DHT22;17195;50.838;7.214;2023-04-03T00:20:22;4.00;99.90
30399;DHT22;17195;50.838;7.214;2023-04-03T00:22:48;4.00;99.90
30399;DHT22;17195;50.838;7.214;2023-04-03T00:25:14;4.00;99.90
30399;DHT22;17195;50.838;7.214;2023-04-03T00:27:40;4.00;99.90
30399;DHT22;17195;50.838;7.214;2023-04-03T00:30:07;4.00;99.90
30399;DHT22;17195;50.838;7.214;2023-04-03T00:32:33;3.90;99.90
30399;DHT22;17195;50.838;7.214;2023-04-03T00:34:59;4.00;99.90
30399;DHT22;17195;50.838;7.214;2023-04-03T00:37:24;4.00;99.90
30399;DHT22;17195;50.838;7.214;2023-04-03T00:39:50;4.00;99.90
30399;DHT22;17195;50.838;7.214;2023-04-03T00:42:16;3.90;99.90
30399;DHT22;17195;50.838;7.214;2023-04-03T00:47:13;3.90;99.90
30399;DHT22;17195;50.838;7.214;2023-04-03T00:49:39;3.90;99.90
30399;DHT22;17195;50.838;7.214;2023-04-03T00:52:07;4.00;99.90
30399;DHT22;17195;50.838;7.214;2023-04-03T00:54:35;3.90;99.90
30399;DHT22;17195;50.838;7.214;2023-04-03T00:57:01;3.90;99.90
30399;DHT22;17195;50.838;7.214;2023-04-03T00:59:31;3.80;99.90
30399;DHT22;17195;50.838;7.214;2023-04-03T01:02:00;3.80;99.90
30399;DHT22;17195;50.838;7.214;2023-04-03T01:04:32;3.70;99.90
30399;DHT22;17195;50.838;7.214;2023-04-03T01:07:09;3.70;99.90
30399;DHT22;17195;50.838;7.214;2023-04-03T01:09:36;3.60;99.90
30399;DHT22;17195;50.838;7.214;2023-04-03T01:12:21;3.70;99.90
30399;DHT22;17195;50.838;7.214;2023-04-03T01:14:53;3.60;99.90
30399;DHT22;17195;50.838;7.214;2023-04-03T01:17:52;3.60;99.90
30399;DHT22;17195;50.838;7.214;2023-04-03T01:23:22;3.40;99.90
30399;DHT22;17195;50.838;7.214;2023-04-03T01:25:53;3.40;99.90
30399;DHT22;17195;50.838;7.214;2023-04-03T01:28:27;3.30;99.90
30399;DHT22;17195;50.838;7.214;2023-04-03T01:33:23;3.10;99.90
30399;DHT22;17195;50.838;7.214;2023-04-03T01:35:49;3.00;99.90
30399;DHT22;17195;50.838;7.214;2023-04-03T01:38:15;3.00;99.90
30399;DHT22;17195;50.838;7.214;2023-04-03T01:40:41;2.90;99.90
30399;DHT22;17195;50.838;7.214;2023-04-03T01:43:06;2.80;99.90
30399;DHT22;17195;50.838;7.214;2023-04-03T01:45:32;2.70;99.90
30399;DHT22;17195;50.838;7.214;2023-04-03T01:47:57;2.70;99.90
30399;DHT22;17195;50.838;7.214;2023-04-03T01:50:23;2.70;99.90
30399;DHT22;17195;50.838;7.214;2023-04-03T01:52:48;2.60;99.90
30399;DHT22;17195;50.838;7.214;2023-04-03T01:55:14;2.60;99.90
30399;DHT22;17195;50.838;7.214;2023-04-03T01:57:40;2.60;99.90
30399;DHT22;17195;50.838;7.214;2023-04-03T02:00:06;2.50;99.90
30399;DHT22;17195;50.838;7.214;2023-04-03T02:02:33;2.30;99.90
30399;DHT22;17195;50.838;7.214;2023-04-03T02:04:58;2.30;99.90
30399;DHT22;17195;50.838;7.214;2023-04-03T02:07:24;2.20;99.90
30399;DHT22;17195;50.838;7.214;2023-04-03T02:09:50;2.20;99.90
30399;DHT22;17195;50.838;7.214;2023-04-03T02:12:15;2.20;99.90
30399;DHT22;17195;50.838;7.214;2023-04-03T02:14:41;2.10;99.90
30399;DHT22;17195;50.838;7.214;2023-04-03T02:17:06;2.10;99.90
30399;DHT22;17195;50.838;7.214;2023-04-03T02:19:34;2.00;99.90
30399;DHT22;17195;50.838;7.214;2023-04-03T02:22:01;2.00;99.90
30399;DHT22;17195;50.838;7.214;2023-04-03T02:24:27;1.90;99.90
30399;DHT22;17195;50.838;7.214;2023-04-03T02:26:53;1.90;99.90
30399;DHT22;17195;50.838;7.214;2023-04-03T02:29:19;1.80;99.90
30399;DHT22;17195;50.838;7.214;2023-04-03T02:31:45;1.80;99.90
30399;DHT22;17195;50.838;7.214;2023-04-03T02:34:10;1.80;99.90
30399;DHT22;17195;50.838;7.214;2023-04-03T02:36:36;1.70;99.90
30399;DHT22;17195;50.838;7.214;2023-04-03T02:39:02;1.70;99.90
30399;DHT22;17195;50.838;7.214;2023-04-03T02:41:27;1.60;99.90
30399;DHT22;17195;50.838;7.214;2023-04-03T02:44:00;1.60;99.90
30399;DHT22;17195;50.838;7.214;2023-04-03T02:46:26;1.50;99.90
30399;DHT22;17195;50.838;7.214;2023-04-03T02:48:51;1.50;99.90
30399;DHT22;17195;50.838;7.214;2023-04-03T02:51:17;1.40;99.90
30399;DHT22;17195;50.838;7.214;2023-04-03T02:53:43;1.40;99.90
30399;DHT22;17195;50.838;7.214;2023-04-03T02:56:08;1.30;99.90
30399;DHT22;17195;50.838;7.214;2023-04-03T02:58:34;1.30;99.90
30399;DHT22;17195;50.838;7.214;2023-04-03T03:01:00;1.30;99.90
30399;DHT22;17195;50.838;7.214;2023-04-03T03:03:25;1.20;99.90
30399;DHT22;17195;50.838;7.214;2023-04-03T03:06:01;1.20;99.90
30399;DHT22;17195;50.838;7.214;2023-04-03T03:08:27;1.10;99.90
30399;DHT22;17195;50.838;7.214;2023-04-03T03:10:52;1.10;99.90
30399;DHT22;17195;50.838;7.214;2023-04-03T03:13:18;1.10;99.90
30399;DHT22;17195;50.838;7.214;2023-04-03T03:15:43;1.00;99.90
30399;DHT22;17195;50.838;7.214;2023-04-03T03:18:09;0.90;99.90
30399;DHT22;17195;50.838;7.214;2023-04-03T03:20:34;0.90;99.90
30399;DHT22;17195;50.838;7.214;2023-04-03T03:23:00;0.90;99.90
30399;DHT22;17195;50.838;7.214;2023-04-03T03:25:25;0.80;99.90
30399;DHT22;17195;50.838;7.214;2023-04-03T03:27:51;0.80;99.90
30399;DHT22;17195;50.838;7.214;2023-04-03T03:30:16;0.80;99.90
30399;DHT22;17195;50.838;7.214;2023-04-03T03:32:42;0.70;99.90
30399;DHT22;17195;50.838;7.214;2023-04-03T03:35:08;0.60;99.90
30399;DHT22;17195;50.838;7.214;2023-04-03T03:37:33;0.60;99.90
30399;DHT22;17195;50.838;7.214;2023-04-03T03:39:59;0.60;99.90
30399;DHT22;17195;50.838;7.214;2023-04-03T03:42:25;0.60;99.90
30399;DHT22;17195;50.838;7.214;2023-04-03T03:44:50;0.60;99.90
30399;DHT22;17195;50.838;7.214;2023-04-03T03:47:17;0.50;99.90
30399;DHT22;17195;50.838;7.214;2023-04-03T03:49:42;0.50;99.90
30399;DHT22;17195;50.838;7.214;2023-04-03T03:52:08;0.50;99.90
30399;DHT22;17195;50.838;7.214;2023-04-03T03:54:36;0.50;99.90
30399;DHT22;17195;50.838;7.214;2023-04-03T03:57:02;0.50;99.90
30399;DHT22;17195;50.838;7.214;2023-04-03T03:59:27;0.40;99.90
30399;DHT22;17195;50.838;7.214;2023-04-03T04:01:53;0.50;99.90
30399;DHT22;17195;50.838;7.214;2023-04-03T04:04:18;0.40;99.90
30399;DHT22;17195;50.838;7.214;2023-04-03T04:06:44;0.40;99.90
30399;DHT22;17195;50.838;7.214;2023-04-03T04:09:11;0.40;99.90
30399;DHT22;17195;50.838;7.214;2023-04-03T04:11:37;0.30;99.90
30399;DHT22;17195;50.838;7.214;2023-04-03T04:14:05;0.30;99.90
30399;DHT22;17195;50.838;7.214;2023-04-03T04:16:30;0.30;99.90
30399;DHT22;17195;50.838;7.214;2023-04-03T04:18:56;0.20;99.90
30399;DHT22;17195;50.838;7.214;2023-04-03T04:21:21;0.20;99.90
30399;DHT22;17195;50.838;7.214;2023-04-03T04:23:47;0.20;99.90
30399;DHT22;17195;50.838;7.214;2023-04-03T04:26:12;0.10;99.90
30399;DHT22;17195;50.838;7.214;2023-04-03T04:28:38;0.20;99.90
30399;DHT22;17195;50.838;7.214;2023-04-03T04:31:04;0.20;99.90
30399;DHT22;17195;50.838;7.214;2023-04-03T04:33:29;0.10;99.90
30399;DHT22;17195;50.838;7.214;2023-04-03T04:35:55;0.10;99.90
30399;DHT22;17195;50.838;7.214;2023-04-03T04:38:21;0.10;99.90
30399;DHT22;17195;50.838;7.214;2023-04-03T04:40:47;0.20;99.90
30399;DHT22;17195;50.838;7.214;2023-04-03T04:43:13;0.20;99.90
30399;DHT22;17195;50.838;7.214;2023-04-03T04:45:40;0.20;99.90
30399;DHT22;17195;50.838;7.214;2023-04-03T04:48:06;0.20;99.90
30399;DHT22;17195;50.838;7.214;2023-04-03T04:50:31;0.20;99.90
30399;DHT22;17195;50.838;7.214;2023-04-03T04:52:57;0.20;99.90
30399;DHT22;17195;50.838;7.214;2023-04-03T04:55:22;0.20;99.90
30399;DHT22;17195;50.838;7.214;2023-04-03T04:57:48;0.20;99.90
30399;DHT22;17195;50.838;7.214;2023-04-03T05:00:14;0.20;99.90
30399;DHT22;17195;50.838;7.214;2023-04-03T05:02:40;0.30;99.90
30399;DHT22;17195;50.838;7.214;2023-04-03T05:05:06;0.30;99.90
30399;DHT22;17195;50.838;7.214;2023-04-03T05:07:32;0.30;99.90
30399;DHT22;17195;50.838;7.214;2023-04-03T05:09:58;0.30;99.90
30399;DHT22;17195;50.838;7.214;2023-04-03T05:12:23;0.30;99.90
30399;DHT22;17195;50.838;7.214;2023-04-03T05:14:49;0.30;99.90
30399;DHT22;17195;50.838;7.214;2023-04-03T05:17:14;0.40;99.90
30399;DHT22;17195;50.838;7.214;2023-04-03T05:19:40;0.40;99.90
30399;DHT22;17195;50.838;7.214;2023-04-03T05:22:05;0.40;99.90
30399;DHT22;17195;50.838;7.214;2023-04-03T05:24:31;0.30;99.90
30399;DHT22;17195;50.838;7.214;2023-04-03T05:26:56;0.40;99.90
30399;DHT22;17195;50.838;7.214;2023-04-03T05:29:22;0.40;99.90
30399;DHT22;17195;50.838;7.214;2023-04-03T05:31:49;0.40;99.90
30399;DHT22;17195;50.838;7.214;2023-04-03T05:34:15;0.40;99.90
30399;DHT22;17195;50.838;7.214;2023-04-03T05:36:41;0.50;99.90
30399;DHT22;17195;50.838;7.214;2023-04-03T05:39:07;0.50;99.90
30399;DHT22;17195;50.838;7.214;2023-04-03T05:41:32;0.60;99.90
30399;DHT22;17195;50.838;7.214;2023-04-03T05:43:58;0.70;99.90
30399;DHT22;17195;50.838;7.214;2023-04-03T05:46:23;0.80;99.90
30399;DHT22;17195;50.838;7.214;2023-04-03T05:48:49;0.80;99.90
30399;DHT22;17195;50.838;7.214;2023-04-03T05:51:18;0.90;99.90
30399;DHT22;17195;50.838;7.214;2023-04-03T05:53:45;1.00;99.90
30399;DHT22;17195;50.838;7.214;2023-04-03T05:56:11;1.10;99.90
30399;DHT22;17195;50.838;7.214;2023-04-03T05:58:36;1.20;99.90
30399;DHT22;17195;50.838;7.214;2023-04-03T06:01:02;1.30;99.90
30399;DHT22;17195;50.838;7.214;2023-04-03T06:03:27;1.40;99.90
30399;DHT22;17195;50.838;7.214;2023-04-03T06:05:53;1.50;99.90
30399;DHT22;17195;50.838;7.214;2023-04-03T06:08:19;1.60;99.90
30399;DHT22;17195;50.838;7.214;2023-04-03T06:10:45;1.70;99.90
30399;DHT22;17195;50.838;7.214;2023-04-03T06:13:10;1.80;99.90
30399;DHT22;17195;50.838;7.214;2023-04-03T06:15:36;1.80;99.90
30399;DHT22;17195;50.838;7.214;2023-04-03T06:18:03;2.00;99.90
30399;DHT22;17195;50.838;7.214;2023-04-03T06:20:29;2.10;99.90
30399;DHT22;17195;50.838;7.214;2023-04-03T06:22:54;2.20;99.90
30399;DHT22;17195;50.838;7.214;2023-04-03T06:25:20;2.30;99.90
30399;DHT22;17195;50.838;7.214;2023-04-03T06:27:46;2.40;99.90
30399;DHT22;17195;50.838;7.214;2023-04-03T06:30:12;2.50;99.90
30399;DHT22;17195;50.838;7.214;2023-04-03T06:32:38;2.60;99.90
30399;DHT22;17195;50.838;7.214;2023-04-03T06:35:05;2.70;99.90
30399;DHT22;17195;50.838;7.214;2023-04-03T06:37:30;2.80;99.90
30399;DHT22;17195;50.838;7.214;2023-04-03T06:39:56;2.80;99.90
30399;DHT22;17195;50.838;7.214;2023-04-03T06:42:22;3.00;99.90
30399;DHT22;17195;50.838;7.214;2023-04-03T06:44:48;3.10;99.90
30399;DHT22;17195;50.838;7.214;2023-04-03T06:47:15;3.20;99.90
30399;DHT22;17195;50.838;7.214;2023-04-03T06:49:41;3.30;99.90
30399;DHT22;17195;50.838;7.214;2023-04-03T06:52:07;3.40;99.90
30399;DHT22;17195;50.838;7.214;2023-04-03T06:54:33;3.50;99.90
30399;DHT22;17195;50.838;7.214;2023-04-03T06:56:58;3.60;99.90
30399;DHT22;17195;50.838;7.214;2023-04-03T06:59:24;3.70;99.90
30399;DHT22;17195;50.838;7.214;2023-04-03T07:01:50;3.80;99.90
30399;DHT22;17195;50.838;7.214;2023-04-03T07:04:16;3.90;99.90
30399;DHT22;17195;50.838;7.214;2023-04-03T07:06:42;4.00;99.90
30399;DHT22;17195;50.838;7.214;2023-04-03T07:09:08;4.20;99.90
30399;DHT22;17195;50.838;7.214;2023-04-03T07:11:34;4.30;99.90
30399;DHT22;17195;50.838;7.214;2023-04-03T07:14:01;4.40;99.90
30399;DHT22;17195;50.838;7.214;2023-04-03T07:16:27;4.60;99.90
30399;DHT22;17195;50.838;7.214;2023-04-03T07:18:52;4.70;99.90
30399;DHT22;17195;50.838;7.214;2023-04-03T07:21:18;4.70;99.90
30399;DHT22;17195;50.838;7.214;2023-04-03T07:23:43;4.70;99.90
30399;DHT22;17195;50.838;7.214;2023-04-03T07:26:09;4.80;99.90
30399;DHT22;17195;50.838;7.214;2023-04-03T07:28:34;4.80;99.90
30399;DHT22;17195;50.838;7.214;2023-04-03T07:31:06;4.80;99.90
30399;DHT22;17195;50.838;7.214;2023-04-03T07:33:37;4.90;99.90
30399;DHT22;17195;50.838;7.214;2023-04-03T07:36:03;4.90;99.90
30399;DHT22;17195;50.838;7.214;2023-04-03T07:38:29;5.00;99.90
30399;DHT22;17195;50.838;7.214;2023-04-03T07:40:55;5.10;99.90
30399;DHT22;17195;50.838;7.214;2023-04-03T07:43:21;5.10;99.90
30399;DHT22;17195;50.838;7.214;2023-04-03T07:45:48;5.20;99.90
30399;DHT22;17195;50.838;7.214;2023-04-03T07:48:23;5.20;99.90
30399;DHT22;17195;50.838;7.214;2023-04-03T07:50:49;5.30;99.90
30399;DHT22;17195;50.838;7.214;2023-04-03T07:53:15;5.40;99.90
30399;DHT22;17195;50.838;7.214;2023-04-03T07:55:41;5.50;99.90
30399;DHT22;17195;50.838;7.214;2023-04-03T07:58:15;5.60;99.90
30399;DHT22;17195;50.838;7.214;2023-04-03T08:00:41;5.60;99.90
30399;DHT22;17195;50.838;7.214;2023-04-03T08:03:09;5.60;99.90
30399;DHT22;17195;50.838;7.214;2023-04-03T08:05:42;5.70;99.90
30399;DHT22;17195;50.838;7.214;2023-04-03T08:08:11;5.80;99.90
30399;DHT22;17195;50.838;7.214;2023-04-03T08:10:37;5.80;99.90
30399;DHT22;17195;50.838;7.214;2023-04-03T08:13:04;5.80;99.90
30399;DHT22;17195;50.838;7.214;2023-04-03T08:15:30;5.80;99.90
30399;DHT22;17195;50.838;7.214;2023-04-03T08:17:57;5.90;99.90
30399;DHT22;17195;50.838;7.214;2023-04-03T08:20:23;6.00;99.90
30399;DHT22;17195;50.838;7.214;2023-04-03T08:22:49;6.00;99.90
30399;DHT22;17195;50.838;7.214;2023-04-03T08:25:14;6.00;99.90
30399;DHT22;17195;50.838;7.214;2023-04-03T08:27:40;6.00;99.90
30399;DHT22;17195;50.838;7.214;2023-04-03T08:30:06;6.10;99.90
30399;DHT22;17195;50.838;7.214;2023-04-03T08:32:33;6.10;99.90
30399;DHT22;17195;50.838;7.214;2023-04-03T08:35:00;6.30;99.90
30399;DHT22;17195;50.838;7.214;2023-04-03T08:37:25;6.30;99.90
30399;DHT22;17195;50.838;7.214;2023-04-03T08:39:51;6.30;99.90
30399;DHT22;17195;50.838;7.214;2023-04-03T08:45:09;6.40;99.90
30399;DHT22;17195;50.838;7.214;2023-04-03T08:50:17;6.50;99.90
30399;DHT22;17195;50.838;7.214;2023-04-03T08:52:47;6.50;99.90
30399;DHT22;17195;50.838;7.214;2023-04-03T08:55:28;6.50;99.90
30399;DHT22;17195;50.838;7.214;2023-04-03T08:58:02;6.60;99.90
30399;DHT22;17195;50.838;7.214;2023-04-03T09:00:48;6.70;99.90
30399;DHT22;17195;50.838;7.214;2023-04-03T09:03:17;6.70;99.90
30399;DHT22;17195;50.838;7.214;2023-04-03T09:08:40;6.80;99.90
30399;DHT22;17195;50.838;7.214;2023-04-03T09:11:20;6.80;99.90
30399;DHT22;17195;50.838;7.214;2023-04-03T09:14:03;7.00;99.90
30399;DHT22;17195;50.838;7.214;2023-04-03T09:16:56;7.10;99.90
30399;DHT22;17195;50.838;7.214;2023-04-03T09:19:36;7.20;99.90
30399;DHT22;17195;50.838;7.214;2023-04-03T09:22:18;7.30;99.90
30399;DHT22;17195;50.838;7.214;2023-04-03T09:24:48;7.40;99.90
30399;DHT22;17195;50.838;7.214;2023-04-03T09:27:16;7.40;99.90
30399;DHT22;17195;50.838;7.214;2023-04-03T09:29:43;7.50;99.90
30399;DHT22;17195;50.838;7.214;2023-04-03T09:32:27;7.60;99.90
30399;DHT22;17195;50.838;7.214;2023-04-03T09:34:56;7.60;99.90
30399;DHT22;17195;50.838;7.214;2023-04-03T09:40:04;7.70;99.90
30399;DHT22;17195;50.838;7.214;2023-04-03T09:42:31;7.70;99.90
30399;DHT22;17195;50.838;7.214;2023-04-03T09:44:59;7.80;99.90
30399;DHT22;17195;50.838;7.214;2023-04-03T09:47:27;8.00;99.90
30399;DHT22;17195;50.838;7.214;2023-04-03T09:52:39;8.00;99.90
30399;DHT22;17195;50.838;7.214;2023-04-03T09:55:18;8.10;99.90
30399;DHT22;17195;50.838;7.214;2023-04-03T09:57:45;8.10;99.90
30399;DHT22;17195;50.838;7.214;2023-04-03T10:00:40;8.10;99.90
30399;DHT22;17195;50.838;7.214;2023-04-03T10:03:33;8.10;99.90
30399;DHT22;17195;50.838;7.214;2023-04-03T10:06:02;8.30;99.90
30399;DHT22;17195;50.838;7.214;2023-04-03T10:13:33;8.40;99.80
30399;DHT22;17195;50.838;7.214;2023-04-03T10:16:15;8.40;99.10
30399;DHT22;17195;50.838;7.214;2023-04-03T10:21:48;8.60;99.20
30399;DHT22;17195;50.838;7.214;2023-04-03T10:24:28;8.70;99.70
30399;DHT22;17195;50.838;7.214;2023-04-03T10:27:18;8.80;97.70
30399;DHT22;17195;50.838;7.214;2023-04-03T10:29:56;8.80;96.50
30399;DHT22;17195;50.838;7.214;2023-04-03T10:51:44;9.50;94.90
30399;DHT22;17195;50.838;7.214;2023-04-03T10:56:48;9.50;94.40
30399;DHT22;17195;50.838;7.214;2023-04-03T11:04:51;9.70;92.40
30399;DHT22;17195;50.838;7.214;2023-04-03T11:07:25;9.90;92.10
30399;DHT22;17195;50.838;7.214;2023-04-03T11:09:58;10.00;91.90
30399;DHT22;17195;50.838;7.214;2023-04-03T11:12:44;10.00;92.20
30399;DHT22;17195;50.838;7.214;2023-04-03T11:15:16;10.20;92.10
30399;DHT22;17195;50.838;7.214;2023-04-03T11:17:58;10.30;91.10
30399;DHT22;17195;50.838;7.214;2023-04-03T11:20:29;10.50;90.70
30399;DHT22;17195;50.838;7.214;2023-04-03T11:25:30;10.70;90.40
30399;DHT22;17195;50.838;7.214;2023-04-03T11:28:01;10.60;90.30
30399;DHT22;17195;50.838;7.214;2023-04-03T11:30:39;10.70;88.90
30399;DHT22;17195;50.838;7.214;2023-04-03T11:35:55;10.80;89.30
30399;DHT22;17195;50.838;7.214;2023-04-03T11:38:31;10.80;86.90
30399;DHT22;17195;50.838;7.214;2023-04-03T11:41:05;10.80;86.00
30399;DHT22;17195;50.838;7.214;2023-04-03T11:43:32;10.80;86.60
30399;DHT22;17195;50.838;7.214;2023-04-03T11:53:46;11.20;81.70
30399;DHT22;17195;50.838;7.214;2023-04-03T12:01:51;11.40;79.60
30399;DHT22;17195;50.838;7.214;2023-04-03T12:04:20;11.40;80.00
30399;DHT22;17195;50.838;7.214;2023-04-03T12:09:34;11.60;80.00
30399;DHT22;17195;50.838;7.214;2023-04-03T12:12:27;11.60;75.90
30399;DHT22;17195;50.838;7.214;2023-04-03T12:14:46;11.60;77.00
30399;DHT22;17195;50.838;7.214;2023-04-03T12:17:22;11.80;76.50
30399;DHT22;17195;50.838;7.214;2023-04-03T12:19:49;11.70;76.30
30399;DHT22;17195;50.838;7.214;2023-04-03T12:22:17;11.80;74.90
30399;DHT22;17195;50.838;7.214;2023-04-03T12:24:50;11.80;75.40
30399;DHT22;17195;50.838;7.214;2023-04-03T12:27:36;11.90;73.50
30399;DHT22;17195;50.838;7.214;2023-04-03T12:32:51;11.90;73.10
30399;DHT22;17195;50.838;7.214;2023-04-03T12:38:35;12.20;74.00
30399;DHT22;17195;50.838;7.214;2023-04-03T12:41:36;12.40;71.80
30399;DHT22;17195;50.838;7.214;2023-04-03T12:44:17;12.70;70.90
30399;DHT22;17195;50.838;7.214;2023-04-03T12:46:50;12.70;67.80
30399;DHT22;17195;50.838;7.214;2023-04-03T12:49:37;12.80;66.60
30399;DHT22;17195;50.838;7.214;2023-04-03T12:52:16;12.80;67.60
30399;DHT22;17195;50.838;7.214;2023-04-03T12:54:45;12.70;67.30
30399;DHT22;17195;50.838;7.214;2023-04-03T12:57:25;12.80;69.90
30399;DHT22;17195;50.838;7.214;2023-04-03T12:59:52;12.90;66.70
30399;DHT22;17195;50.838;7.214;2023-04-03T13:02:24;12.90;66.80
30399;DHT22;17195;50.838;7.214;2023-04-03T13:04:52;12.90;67.10
30399;DHT22;17195;50.838;7.214;2023-04-03T13:07:28;12.80;66.60
30399;DHT22;17195;50.838;7.214;2023-04-03T13:10:00;12.90;67.90
30399;DHT22;17195;50.838;7.214;2023-04-03T13:12:26;13.00;66.80
30399;DHT22;17195;50.838;7.214;2023-04-03T13:14:57;13.00;67.00
30399;DHT22;17195;50.838;7.214;2023-04-03T13:17:24;12.90;66.70
30399;DHT22;17195;50.838;7.214;2023-04-03T13:19:50;12.80;68.20
30399;DHT22;17195;50.838;7.214;2023-04-03T13:24:52;13.10;66.60
30399;DHT22;17195;50.838;7.214;2023-04-03T13:27:19;13.20;68.00
30399;DHT22;17195;50.838;7.214;2023-04-03T13:29:53;13.20;66.10
30399;DHT22;17195;50.838;7.214;2023-04-03T13:32:21;13.20;66.50
30399;DHT22;17195;50.838;7.214;2023-04-03T13:34:48;13.30;67.20
30399;DHT22;17195;50.838;7.214;2023-04-03T13:39:45;13.50;66.30
30399;DHT22;17195;50.838;7.214;2023-04-03T13:42:27;13.50;65.20
30399;DHT22;17195;50.838;7.214;2023-04-03T13:45:21;13.80;66.50
30399;DHT22;17195;50.838;7.214;2023-04-03T13:47:50;13.90;65.70
30399;DHT22;17195;50.838;7.214;2023-04-03T13:50:20;14.10;65.00
30399;DHT22;17195;50.838;7.214;2023-04-03T13:52:47;14.10;63.30
30399;DHT22;17195;50.838;7.214;2023-04-03T13:55:24;14.10;62.40
30399;DHT22;17195;50.838;7.214;2023-04-03T14:00:33;14.30;62.20
30399;DHT22;17195;50.838;7.214;2023-04-03T14:02:59;14.30;63.20
30399;DHT22;17195;50.838;7.214;2023-04-03T14:05:25;14.40;62.90
30399;DHT22;17195;50.838;7.214;2023-04-03T14:07:53;14.30;64.10
30399;DHT22;17195;50.838;7.214;2023-04-03T14:10:19;14.30;62.90
30399;DHT22;17195;50.838;7.214;2023-04-03T14:12:44;14.30;64.40
30399;DHT22;17195;50.838;7.214;2023-04-03T14:15:18;14.40;63.00
30399;DHT22;17195;50.838;7.214;2023-04-03T14:17:45;14.50;62.00
30399;DHT22;17195;50.838;7.214;2023-04-03T14:20:16;14.50;62.80
30399;DHT22;17195;50.838;7.214;2023-04-03T14:22:41;14.40;62.40
30399;DHT22;17195;50.838;7.214;2023-04-03T14:25:07;14.60;62.50
30399;DHT22;17195;50.838;7.214;2023-04-03T14:27:37;14.90;60.70
30399;DHT22;17195;50.838;7.214;2023-04-03T14:30:09;15.20;60.90
30399;DHT22;17195;50.838;7.214;2023-04-03T14:32:37;15.40;61.30
30399;DHT22;17195;50.838;7.214;2023-04-03T14:35:03;15.60;58.70
30399;DHT22;17195;50.838;7.214;2023-04-03T14:37:31;15.70;58.90
30399;DHT22;17195;50.838;7.214;2023-04-03T14:39:58;15.60;59.80
30399;DHT22;17195;50.838;7.214;2023-04-03T14:42:33;15.60;59.20
30399;DHT22;17195;50.838;7.214;2023-04-03T14:45:01;15.80;59.10
30399;DHT22;17195;50.838;7.214;2023-04-03T14:47:29;15.80;57.90
30399;DHT22;17195;50.838;7.214;2023-04-03T14:49:55;15.80;57.70
30399;DHT22;17195;50.838;7.214;2023-04-03T14:52:26;15.80;57.40
30399;DHT22;17195;50.838;7.214;2023-04-03T14:54:52;15.80;56.90
30399;DHT22;17195;50.838;7.214;2023-04-03T14:57:19;16.00;57.30
30399;DHT22;17195;50.838;7.214;2023-04-03T14:59:46;16.10;55.90
30399;DHT22;17195;50.838;7.214;2023-04-03T15:02:29;16.30;55.30
30399;DHT22;17195;50.838;7.214;2023-04-03T15:04:55;16.60;55.90
30399;DHT22;17195;50.838;7.214;2023-04-03T15:07:22;16.70;54.30
30399;DHT22;17195;50.838;7.214;2023-04-03T15:09:48;16.80;54.70
30399;DHT22;17195;50.838;7.214;2023-04-03T15:12:14;16.80;53.80
30399;DHT22;17195;50.838;7.214;2023-04-03T15:14:40;16.80;54.60
30399;DHT22;17195;50.838;7.214;2023-04-03T15:17:06;17.20;55.30
30399;DHT22;17195;50.838;7.214;2023-04-03T15:19:38;17.50;53.00
30399;DHT22;17195;50.838;7.214;2023-04-03T15:22:04;17.70;53.40
30399;DHT22;17195;50.838;7.214;2023-04-03T15:24:30;18.00;53.00
30399;DHT22;17195;50.838;7.214;2023-04-03T15:26:55;18.10;51.30
30399;DHT22;17195;50.838;7.214;2023-04-03T15:29:21;18.50;49.60
30399;DHT22;17195;50.838;7.214;2023-04-03T15:31:47;18.90;49.10
30399;DHT22;17195;50.838;7.214;2023-04-03T15:34:15;19.70;47.90
30399;DHT22;17195;50.838;7.214;2023-04-03T15:36:41;20.40;47.00
30399;DHT22;17195;50.838;7.214;2023-04-03T15:39:07;21.30;45.50
30399;DHT22;17195;50.838;7.214;2023-04-03T15:41:32;23.60;43.30
30399;DHT22;17195;50.838;7.214;2023-04-03T15:43:58;26.70;36.30
30399;DHT22;17195;50.838;7.214;2023-04-03T15:46:23;29.10;30.80
30399;DHT22;17195;50.838;7.214;2023-04-03T15:48:49;30.80;27.80
30399;DHT22;17195;50.838;7.214;2023-04-03T15:51:15;32.10;24.60
30399;DHT22;17195;50.838;7.214;2023-04-03T15:53:40;33.40;23.30
30399;DHT22;17195;50.838;7.214;2023-04-03T15:56:06;34.50;21.50
30399;DHT22;17195;50.838;7.214;2023-04-03T15:58:33;34.80;21.10
30399;DHT22;17195;50.838;7.214;2023-04-03T16:00:58;35.50;20.20
30399;DHT22;17195;50.838;7.214;2023-04-03T16:03:24;35.70;20.00
30399;DHT22;17195;50.838;7.214;2023-04-03T16:05:50;36.20;19.10
30399;DHT22;17195;50.838;7.214;2023-04-03T16:08:16;36.20;18.70
30399;DHT22;17195;50.838;7.214;2023-04-03T16:10:43;35.90;18.60
30399;DHT22;17195;50.838;7.214;2023-04-03T16:13:11;34.90;18.70
30399;DHT22;17195;50.838;7.214;2023-04-03T16:15:36;34.30;18.80
30399;DHT22;17195;50.838;7.214;2023-04-03T16:18:03;34.20;19.00
30399;DHT22;17195;50.838;7.214;2023-04-03T16:20:30;33.90;18.40
30399;DHT22;17195;50.838;7.214;2023-04-03T16:22:57;31.50;19.10
30399;DHT22;17195;50.838;7.214;2023-04-03T16:25:25;29.00;20.70
30399;DHT22;17195;50.838;7.214;2023-04-03T16:27:51;26.40;22.30
30399;DHT22;17195;50.838;7.214;2023-04-03T16:30:18;24.10;23.80
30399;DHT22;17195;50.838;7.214;2023-04-03T16:32:43;22.20;26.00
30399;DHT22;17195;50.838;7.214;2023-04-03T16:35:10;20.90;28.00
30399;DHT22;17195;50.838;7.214;2023-04-03T16:37:36;20.00;29.10
30399;DHT22;17195;50.838;7.214;2023-04-03T16:40:03;19.60;28.90
30399;DHT22;17195;50.838;7.214;2023-04-03T16:42:28;18.40;30.90
30399;DHT22;17195;50.838;7.214;2023-04-03T16:44:54;17.60;32.60
30399;DHT22;17195;50.838;7.214;2023-04-03T16:47:19;17.90;31.80
30399;DHT22;17195;50.838;7.214;2023-04-03T16:49:46;17.50;32.50
30399;DHT22;17195;50.838;7.214;2023-04-03T16:52:12;17.40;33.20
30399;DHT22;17195;50.838;7.214;2023-04-03T16:54:37;16.90;33.80
30399;DHT22;17195;50.838;7.214;2023-04-03T16:57:03;16.30;34.80
30399;DHT22;17195;50.838;7.214;2023-04-03T16:59:29;15.90;36.40
30399;DHT22;17195;50.838;7.214;2023-04-03T17:01:54;15.10;36.70
30399;DHT22;17195;50.838;7.214;2023-04-03T17:04:20;14.40;38.10
30399;DHT22;17195;50.838;7.214;2023-04-03T17:06:46;13.90;39.30
30399;DHT22;17195;50.838;7.214;2023-04-03T17:09:11;13.40;39.60
30399;DHT22;17195;50.838;7.214;2023-04-03T17:11:37;12.90;41.10
30399;DHT22;17195;50.838;7.214;2023-04-03T17:14:04;12.50;42.20
30399;DHT22;17195;50.838;7.214;2023-04-03T17:16:30;12.20;42.60
30399;DHT22;17195;50.838;7.214;2023-04-03T17:18:56;12.10;43.40